createdAt,value
2019-02-25T00:01:41.585Z,119.67
2019-02-25T00:04:12.737Z,144.70
2019-02-25T00:06:44.466Z,148.97
2019-02-25T00:09:14.056Z,138.15
2019-02-25T00:11:46.089Z,133.00
2019-02-25T00:14:15.801Z,139.43
2019-02-25T00:16:47.640Z,143.83
2019-02-25T00:19:39.198Z,189.10
2019-02-25T00:22:13.761Z,188.03
2019-02-25T00:24:47.573Z,154.73
2019-02-25T00:27:17.338Z,150.25
2019-02-25T00:29:47.246Z,136.37
2019-02-25T00:32:19.166Z,121.57
2019-02-25T00:34:49.917Z,127.80
2019-02-25T00:37:22.131Z,127.17
2019-02-25T00:39:52.846Z,118.33
2019-02-25T00:42:22.555Z,114.30
2019-02-25T00:44:53.246Z,112.80
2019-02-25T00:47:23.988Z,107.40
2019-02-25T00:49:55.020Z,111.53
2019-02-25T00:52:25.854Z,107.37
2019-02-25T00:54:56.374Z,102.23
2019-02-25T00:57:27.193Z,104.00
2019-02-25T00:59:57.675Z,104.53
2019-02-25T01:02:28.947Z,104.73
2019-02-25T01:04:59.567Z,102.90
2019-02-25T01:07:30.305Z,103.13
2019-02-25T01:10:02.174Z,98.97
2019-02-25T01:12:32.757Z,97.93
2019-02-25T01:15:06.194Z,94.07
2019-02-25T01:17:36.151Z,92.57
2019-02-25T01:20:09.924Z,85.07
2019-02-25T01:22:41.349Z,81.93
2019-02-25T01:25:14.049Z,79.70
2019-02-25T01:27:45.180Z,74.50
2019-02-25T01:30:22.368Z,74.57
2019-02-25T01:32:53.311Z,73.57
2019-02-25T01:35:24.136Z,68.57
2019-02-25T01:37:55.515Z,67.10
2019-02-25T01:40:26.329Z,74.10
2019-02-25T01:42:56.624Z,68.50
2019-02-25T01:45:27.071Z,61.07
2019-02-25T01:47:57.798Z,61.00
2019-02-25T01:50:28.086Z,59.97
2019-02-25T01:53:00.382Z,59.50
2019-02-25T01:55:33.205Z,59.00
2019-02-25T01:58:05.174Z,54.87
2019-02-25T02:00:37.777Z,54.07
2019-02-25T02:03:08.068Z,58.27
2019-02-25T02:05:38.906Z,59.13
2019-02-25T02:08:10.295Z,57.87
2019-02-25T02:10:40.631Z,62.23
2019-02-25T02:13:14.398Z,61.80
2019-02-25T02:15:46.430Z,66.17
2019-02-25T02:18:17.860Z,72.87
2019-02-25T02:20:46.974Z,69.20
2019-02-25T02:23:17.321Z,62.63
2019-02-25T02:25:48.271Z,61.70
2019-02-25T02:28:19.890Z,61.73
2019-02-25T02:30:51.529Z,54.33
2019-02-25T02:33:24.435Z,54.17
2019-02-25T02:35:55.440Z,52.73
2019-02-25T02:38:28.905Z,52.13
2019-02-25T02:40:59.933Z,55.33
2019-02-25T02:43:30.139Z,51.00
2019-02-25T02:46:14.522Z,53.43
2019-02-25T02:49:11.424Z,54.43
2019-02-25T02:51:42.100Z,61.00
2019-02-25T02:54:11.818Z,61.93
2019-02-25T02:56:44.128Z,62.17
2019-02-25T02:59:15.898Z,65.52
2019-02-25T03:01:48.831Z,64.30
2019-02-25T03:04:19.913Z,60.75
2019-02-25T03:06:52.164Z,54.48
2019-02-25T03:09:22.447Z,50.03
2019-02-25T03:11:56.024Z,45.00
2019-02-25T03:14:25.096Z,45.93
2019-02-25T03:16:56.604Z,41.73
2019-02-25T03:19:27.165Z,39.13
2019-02-25T03:21:56.947Z,38.67
2019-02-25T03:24:28.668Z,40.30
2019-02-25T03:27:00.598Z,39.37
2019-02-25T03:29:32.246Z,41.63
2019-02-25T03:32:04.324Z,41.00
2019-02-25T03:34:35.992Z,38.03
2019-02-25T03:37:08.414Z,36.70
2019-02-25T03:39:39.586Z,38.77
2019-02-25T03:42:11.773Z,37.73
2019-02-25T03:44:43.878Z,37.13
2019-02-25T03:47:16.678Z,38.50
2019-02-25T03:49:48.947Z,37.23
2019-02-25T03:52:22.768Z,37.03
2019-02-25T03:54:54.653Z,36.13
2019-02-25T03:57:26.208Z,38.40
2019-02-25T04:00:19.782Z,35.20
2019-02-25T04:02:52.514Z,36.57
2019-02-25T04:05:22.308Z,36.50
2019-02-25T04:07:53.991Z,41.83
2019-02-25T04:10:26.405Z,41.60
2019-02-25T04:12:57.676Z,48.33
2019-02-25T04:15:36.036Z,41.83
2019-02-25T04:18:07.174Z,43.43
2019-02-25T04:20:37.912Z,40.03
2019-02-25T04:23:09.409Z,41.30
2019-02-25T04:25:42.402Z,45.57
2019-02-25T04:28:16.610Z,44.90
2019-02-25T04:30:48.535Z,41.40
2019-02-25T04:33:19.680Z,37.90
2019-02-25T04:35:50.581Z,36.53
2019-02-25T04:38:21.772Z,35.80
2019-02-25T04:40:51.559Z,36.90
2019-02-25T04:43:23.696Z,35.80
2019-02-25T04:45:55.190Z,34.37
2019-02-25T04:48:25.508Z,35.37
2019-02-25T04:50:58.266Z,32.53
2019-02-25T04:53:30.619Z,34.73
2019-02-25T04:56:02.783Z,32.00
2019-02-25T04:58:33.029Z,31.83
2019-02-25T05:01:02.706Z,31.40
2019-02-25T05:03:33.318Z,33.30
2019-02-25T05:06:03.525Z,29.63
2019-02-25T05:08:35.764Z,29.90
2019-02-25T05:11:06.658Z,33.33
2019-02-25T05:13:36.433Z,31.63
2019-02-25T05:16:09.807Z,36.70
2019-02-25T05:18:39.642Z,36.27
2019-02-25T05:21:11.108Z,33.97
2019-02-25T05:23:46.812Z,37.20
2019-02-25T05:26:17.088Z,38.15
2019-02-25T05:28:48.303Z,34.83
2019-02-25T05:31:19.737Z,39.70
2019-02-25T05:33:51.407Z,37.60
2019-02-25T05:36:22.506Z,41.97
2019-02-25T05:38:53.023Z,47.33
2019-02-25T05:41:23.280Z,45.33
2019-02-25T05:44:00.146Z,48.67
2019-02-25T05:46:32.663Z,45.67
2019-02-25T05:49:04.088Z,49.87
2019-02-25T05:51:35.285Z,51.83
2019-02-25T05:54:06.178Z,50.17
2019-02-25T05:56:39.044Z,50.03
2019-02-25T05:59:14.681Z,54.67
2019-02-25T06:01:46.901Z,48.97
2019-02-25T06:04:19.588Z,52.03
2019-02-25T06:06:51.555Z,49.00
2019-02-25T06:09:23.016Z,53.13
2019-02-25T06:11:55.188Z,53.37
2019-02-25T06:14:27.308Z,40.27
2019-02-25T06:16:59.472Z,47.47
2019-02-25T06:19:30.926Z,35.00
2019-02-25T06:22:02.541Z,36.57
2019-02-25T06:24:35.179Z,36.70
2019-02-25T06:29:37.692Z,23.30
2019-02-25T06:32:08.704Z,23.27
2019-02-25T06:34:41.549Z,22.53
2019-02-25T06:37:12.705Z,29.13
2019-02-25T06:39:44.534Z,28.63
2019-02-25T06:42:15.860Z,31.93
2019-02-25T06:44:47.318Z,27.00
2019-02-25T06:47:18.474Z,34.67
2019-02-25T06:49:52.209Z,45.40
2019-02-25T06:52:23.717Z,46.70
2019-02-25T06:54:57.204Z,37.80
2019-02-25T06:57:31.650Z,40.07
2019-02-25T07:00:02.795Z,38.77
2019-02-25T07:02:35.204Z,34.10
2019-02-25T07:05:15.709Z,33.07
2019-02-25T07:08:04.768Z,32.27
2019-02-25T07:10:41.118Z,31.27
2019-02-25T07:13:19.351Z,30.07
2019-02-25T07:16:04.759Z,32.70
2019-02-25T07:18:51.724Z,30.87
2019-02-25T07:21:29.641Z,31.77
2019-02-25T07:24:01.455Z,27.07
2019-02-25T07:26:49.685Z,19.90
2019-02-25T07:32:39.548Z,16.53
2019-02-25T07:35:20.166Z,16.07
2019-02-25T07:38:05.963Z,15.13
2019-02-25T07:40:52.869Z,14.23
2019-02-25T07:43:37.678Z,14.68
2019-02-25T07:46:19.556Z,13.47
2019-02-25T07:48:52.756Z,16.23
2019-02-25T07:51:43.544Z,22.13
2019-02-25T07:54:23.889Z,21.50
2019-02-25T07:56:55.943Z,13.90
2019-02-25T07:59:45.414Z,11.53
2019-02-25T08:02:20.339Z,19.77
2019-02-25T08:04:56.883Z,13.00
2019-02-25T08:07:35.611Z,10.80
2019-02-25T08:10:26.251Z,11.48
2019-02-25T08:12:58.608Z,11.00
2019-02-25T08:15:46.077Z,10.70
2019-02-25T08:18:16.832Z,11.23
2019-02-25T08:21:06.459Z,10.73
2019-02-25T08:23:41.173Z,11.60
2019-02-25T08:26:18.229Z,13.03
2019-02-25T08:29:08.880Z,10.37
2019-02-25T08:31:44.674Z,23.70
2019-02-25T08:34:32.017Z,20.50
2019-02-25T08:37:25.281Z,21.63
2019-02-25T08:40:19.422Z,11.57
2019-02-25T08:42:50.733Z,12.77
2019-02-25T08:45:27.639Z,10.90
2019-02-25T08:48:06.457Z,9.73
2019-02-25T08:50:38.015Z,10.07
2019-02-25T08:53:09.666Z,10.72
2019-02-25T08:55:39.445Z,11.13
2019-02-25T08:58:10.948Z,11.23
2019-02-25T09:00:42.403Z,11.37
2019-02-25T09:03:13.737Z,11.23
2019-02-25T09:05:46.562Z,11.27
2019-02-25T09:08:19.672Z,11.87
2019-02-25T09:10:51.010Z,12.60
2019-02-25T09:13:20.346Z,11.70
2019-02-25T09:15:50.106Z,13.30
2019-02-25T09:18:21.257Z,12.30
2019-02-25T09:20:52.508Z,11.77
2019-02-25T09:23:27.333Z,13.03
2019-02-25T09:25:57.579Z,11.93
2019-02-25T09:28:26.298Z,11.10
2019-02-25T09:30:56.541Z,12.23
2019-02-25T09:33:26.951Z,12.67
2019-02-25T09:35:58.120Z,13.10
2019-02-25T09:38:30.304Z,13.43
2019-02-25T09:41:02.986Z,13.40
2019-02-25T09:43:33.690Z,13.70
2019-02-25T09:46:06.069Z,13.40
2019-02-25T09:48:36.723Z,20.60
2019-02-25T09:51:08.272Z,19.03
2019-02-25T09:53:41.618Z,12.97
2019-02-25T09:56:11.366Z,16.25
2019-02-25T09:58:42.192Z,15.30
2019-02-25T10:01:13.048Z,16.97
2019-02-25T10:03:44.759Z,15.87
2019-02-25T10:06:15.922Z,14.63
2019-02-25T10:08:49.405Z,14.00
2019-02-25T10:11:19.742Z,15.03
2019-02-25T10:13:51.982Z,15.50
2019-02-25T10:16:23.891Z,16.07
2019-02-25T10:18:55.706Z,15.53
2019-02-25T10:21:27.092Z,13.60
2019-02-25T10:23:58.752Z,18.23
2019-02-25T10:26:52.018Z,14.40
2019-02-25T10:29:22.971Z,14.60
2019-02-25T10:31:53.430Z,16.30
2019-02-25T10:34:24.048Z,24.87
2019-02-25T10:37:15.610Z,17.77
2019-02-25T10:39:49.616Z,23.00
2019-02-25T10:42:20.595Z,22.58
2019-02-25T10:44:50.547Z,20.93
2019-02-25T10:47:24.076Z,19.97
2019-02-25T10:49:56.560Z,23.10
2019-02-25T10:52:35.447Z,18.83
2019-02-25T10:55:08.215Z,19.20
2019-02-25T10:57:39.498Z,17.60
2019-02-25T11:00:13.761Z,18.87
2019-02-25T11:02:46.850Z,21.57
2019-02-25T11:05:19.014Z,20.07
2019-02-25T11:07:50.723Z,18.53
2019-02-25T11:10:46.920Z,19.33
2019-02-25T11:13:17.215Z,18.48
2019-02-25T11:15:48.409Z,18.53
2019-02-25T11:18:17.977Z,17.40
2019-02-25T11:20:48.103Z,17.23
2019-02-25T11:23:21.521Z,18.60
2019-02-25T11:25:53.702Z,16.67
2019-02-25T11:28:26.374Z,17.23
2019-02-25T11:31:00.546Z,16.83
2019-02-25T11:33:32.577Z,16.57
2019-02-25T11:36:04.612Z,17.83
2019-02-25T11:38:39.072Z,17.20
2019-02-25T11:41:11.029Z,17.47
2019-02-25T11:43:44.079Z,17.80
2019-02-25T11:46:16.035Z,18.00
2019-02-25T11:48:46.286Z,16.97
2019-02-25T11:51:19.572Z,17.23
2019-02-25T11:53:51.786Z,16.67
2019-02-25T11:56:23.781Z,17.73
2019-02-25T11:58:54.179Z,17.40
2019-02-25T12:01:24.699Z,17.67
2019-02-25T12:03:55.072Z,16.83
2019-02-25T12:06:28.594Z,16.47
2019-02-25T12:08:58.091Z,16.93
2019-02-25T12:11:29.211Z,15.87
2019-02-25T12:14:00.446Z,15.63
2019-02-25T12:16:32.391Z,17.77
2019-02-25T12:19:04.355Z,17.03
2019-02-25T12:21:35.625Z,16.30
2019-02-25T12:24:06.919Z,16.27
2019-02-25T12:26:38.529Z,17.70
2019-02-25T12:29:11.077Z,15.87
2019-02-25T12:31:42.480Z,16.70
2019-02-25T12:34:14.579Z,16.17
2019-02-25T12:36:48.772Z,15.60
2019-02-25T12:39:19.222Z,16.33
2019-02-25T12:41:49.595Z,15.53
2019-02-25T12:44:22.047Z,15.03
2019-02-25T12:46:52.382Z,15.90
2019-02-25T12:49:24.128Z,15.63
2019-02-25T12:51:56.254Z,16.03
2019-02-25T12:54:27.683Z,16.73
2019-02-25T12:57:00.481Z,16.30
2019-02-25T12:59:32.331Z,16.00
2019-02-25T13:02:02.643Z,14.50
2019-02-25T13:04:32.464Z,16.20
2019-02-25T13:07:03.701Z,15.37
2019-02-25T13:09:34.682Z,15.27
2019-02-25T13:12:06.748Z,13.50
2019-02-25T13:14:39.728Z,13.77
2019-02-25T13:17:11.520Z,13.47
2019-02-25T13:19:41.951Z,13.60
2019-02-25T13:22:31.419Z,14.67
2019-02-25T13:25:00.703Z,13.37
2019-02-25T13:27:32.063Z,15.20
2019-02-25T13:30:03.408Z,13.00
2019-02-25T13:32:34.229Z,13.60
2019-02-25T13:35:08.214Z,14.13
2019-02-25T13:37:38.664Z,13.80
2019-02-25T13:40:12.291Z,13.00
2019-02-25T13:42:43.178Z,14.57
2019-02-25T13:45:19.038Z,13.03
2019-02-25T13:47:50.567Z,14.93
2019-02-25T13:50:20.637Z,13.97
2019-02-25T13:52:50.330Z,14.77
2019-02-25T13:55:22.350Z,13.87
2019-02-25T13:57:54.452Z,14.30
2019-02-25T14:00:31.171Z,14.10
2019-02-25T14:03:03.283Z,13.83
2019-02-25T14:05:35.268Z,13.20
2019-02-25T14:08:07.675Z,13.43
2019-02-25T14:10:38.206Z,11.97
2019-02-25T14:13:10.459Z,12.55
2019-02-25T14:15:41.149Z,12.10
2019-02-25T14:18:12.033Z,11.50
2019-02-25T14:20:43.195Z,12.63
2019-02-25T14:23:13.563Z,13.63
2019-02-25T14:25:44.839Z,12.20
2019-02-25T14:28:14.647Z,13.43
2019-02-25T14:30:44.968Z,14.23
2019-02-25T14:33:16.813Z,12.87
2019-02-25T14:35:47.583Z,12.43
2019-02-25T14:38:20.403Z,13.60
2019-02-25T14:40:53.866Z,14.10
2019-02-25T14:43:25.449Z,13.10
2019-02-25T14:45:56.811Z,12.70
2019-02-25T14:48:27.527Z,13.27
2019-02-25T14:50:57.667Z,12.97
2019-02-25T14:53:29.776Z,15.47
2019-02-25T14:56:03.953Z,14.43
2019-02-25T14:58:33.789Z,13.40
2019-02-25T15:01:04.362Z,16.83
2019-02-25T15:03:35.695Z,14.90
2019-02-25T15:06:07.870Z,14.00
2019-02-25T15:08:38.910Z,13.77
2019-02-25T15:11:11.352Z,14.33
2019-02-25T15:13:42.573Z,13.33
2019-02-25T15:16:14.216Z,13.77
2019-02-25T15:18:44.181Z,15.00
2019-02-25T15:21:16.026Z,13.27
2019-02-25T15:23:48.516Z,14.20
2019-02-25T15:26:21.553Z,13.62
2019-02-25T15:28:53.785Z,15.97
2019-02-25T15:31:24.508Z,15.37
2019-02-25T15:33:57.100Z,15.87
2019-02-25T15:36:29.055Z,15.80
2019-02-25T15:39:06.074Z,16.17
2019-02-25T15:41:38.500Z,15.67
2019-02-25T15:44:08.956Z,16.17
2019-02-25T15:46:40.571Z,16.53
2019-02-25T15:49:13.040Z,15.63
2019-02-25T15:51:45.280Z,15.63
2019-02-25T15:54:15.342Z,15.03
2019-02-25T15:56:47.704Z,15.40
2019-02-25T15:59:19.809Z,16.57
2019-02-25T16:01:50.804Z,15.60
2019-02-25T16:04:21.675Z,16.32
2019-02-25T16:06:53.760Z,15.93
2019-02-25T16:09:25.945Z,14.67
2019-02-25T16:11:58.975Z,16.37
2019-02-25T16:14:30.244Z,15.73
2019-02-25T16:17:01.492Z,14.17
2019-02-25T16:19:39.927Z,14.03
2019-02-25T16:22:02.719Z,14.73
2019-02-25T16:24:34.442Z,16.50
2019-02-25T16:27:05.521Z,15.67
2019-02-25T16:29:36.363Z,16.07
2019-02-25T16:32:07.673Z,17.33
2019-02-25T16:34:40.475Z,16.07
2019-02-25T16:37:12.046Z,16.30
2019-02-25T16:39:43.161Z,15.33
2019-02-25T16:42:12.919Z,16.73
2019-02-25T16:44:45.435Z,16.03
2019-02-25T16:47:18.285Z,14.73
2019-02-25T16:49:51.936Z,15.53
2019-02-25T16:52:25.222Z,15.03
2019-02-25T16:54:56.161Z,14.50
2019-02-25T16:57:26.009Z,15.00
2019-02-25T16:59:59.896Z,15.47
2019-02-25T17:02:33.942Z,13.87
2019-02-25T17:05:05.205Z,15.70
2019-02-25T17:07:36.088Z,14.67
2019-02-25T17:10:13.845Z,14.30
2019-02-25T17:12:52.548Z,14.63
2019-02-25T17:15:26.912Z,15.98
2019-02-25T17:17:59.203Z,15.73
2019-02-25T17:20:32.256Z,14.13
2019-02-25T17:23:09.524Z,15.27
2019-02-25T17:25:43.344Z,15.70
2019-02-25T17:28:17.025Z,15.37
2019-02-25T17:30:49.529Z,19.37
2019-02-25T17:33:19.129Z,26.03
2019-02-25T17:35:51.893Z,17.87
2019-02-25T17:38:24.247Z,17.00
2019-02-25T17:40:56.625Z,17.63
2019-02-25T17:43:27.442Z,16.37
2019-02-25T17:45:58.298Z,16.23
2019-02-25T17:48:29.833Z,17.73
2019-02-25T17:51:01.679Z,17.70
2019-02-25T17:53:34.414Z,16.93
2019-02-25T17:56:07.557Z,18.27
2019-02-25T17:58:38.250Z,22.30
2019-02-25T18:01:09.087Z,17.60
2019-02-25T18:03:42.211Z,18.10
2019-02-25T18:06:13.315Z,19.30
2019-02-25T18:08:43.228Z,17.12
2019-02-25T18:11:15.751Z,19.35
2019-02-25T18:13:49.029Z,18.53
2019-02-25T18:16:22.463Z,20.37
2019-02-25T18:18:54.462Z,18.53
2019-02-25T18:21:28.911Z,18.73
2019-02-25T18:23:59.075Z,19.80
2019-02-25T18:26:31.076Z,17.87
2019-02-25T18:29:05.587Z,18.63
2019-02-25T18:31:38.208Z,18.63
2019-02-25T18:34:11.218Z,18.40
2019-02-25T18:36:41.462Z,19.23
2019-02-25T18:39:15.769Z,18.80
2019-02-25T18:41:46.176Z,18.90
2019-02-25T18:44:16.958Z,18.37
2019-02-25T18:46:47.804Z,18.87
2019-02-25T18:49:18.929Z,18.90
2019-02-25T18:51:50.155Z,20.50
2019-02-25T18:54:23.404Z,20.07
2019-02-25T18:56:57.028Z,20.23
2019-02-25T18:59:28.730Z,19.87
2019-02-25T19:01:59.603Z,20.03
2019-02-25T19:04:30.670Z,18.60
2019-02-25T19:07:04.557Z,20.27
2019-02-25T19:09:36.841Z,20.33
2019-02-25T19:12:09.184Z,18.30
2019-02-25T19:14:39.973Z,20.33
2019-02-25T19:17:09.355Z,20.17
2019-02-25T19:19:40.648Z,18.90
2019-02-25T19:22:13.127Z,19.92
2019-02-25T19:24:48.781Z,19.20
2019-02-25T19:27:20.507Z,19.50
2019-02-25T19:29:51.989Z,20.20
2019-02-25T19:32:23.893Z,19.75
2019-02-25T19:34:56.236Z,19.43
2019-02-25T19:37:31.187Z,19.73
2019-02-25T19:39:59.080Z,18.80
2019-02-25T19:42:31.258Z,18.90
2019-02-25T19:45:05.756Z,17.60
2019-02-25T19:47:35.990Z,18.60
2019-02-25T19:50:11.662Z,19.00
2019-02-25T19:52:42.420Z,18.87
2019-02-25T19:55:18.347Z,18.73
2019-02-25T19:57:52.125Z,19.37
2019-02-25T20:00:29.724Z,18.50
2019-02-25T20:03:06.012Z,18.20
2019-02-25T20:05:41.210Z,17.33
2019-02-25T20:08:11.049Z,17.43
2019-02-25T20:10:42.520Z,17.23
2019-02-25T20:13:12.429Z,18.90
2019-02-25T20:15:44.089Z,17.83
2019-02-25T20:18:18.354Z,18.48
2019-02-25T20:20:48.451Z,16.43
2019-02-25T20:23:20.255Z,17.02
2019-02-25T20:25:53.905Z,18.17
2019-02-25T20:28:26.429Z,18.37
2019-02-25T20:30:57.243Z,17.13
2019-02-25T20:33:31.843Z,18.83
2019-02-25T20:36:01.282Z,17.73
2019-02-25T20:38:34.572Z,17.27
2019-02-25T20:41:08.903Z,17.97
2019-02-25T20:43:40.165Z,18.97
2019-02-25T20:46:10.011Z,19.47
2019-02-25T20:48:44.520Z,19.10
2019-02-25T20:51:14.268Z,19.03
2019-02-25T20:53:46.157Z,19.20
2019-02-25T20:56:18.424Z,18.70
2019-02-25T20:58:51.779Z,18.70
2019-02-25T21:01:22.783Z,18.97
2019-02-25T21:03:56.855Z,19.17
2019-02-25T21:06:28.064Z,19.47
2019-02-25T21:09:00.377Z,19.20
2019-02-25T21:11:31.739Z,20.17
2019-02-25T21:14:03.027Z,19.00
2019-02-25T21:16:34.604Z,18.30
2019-02-25T21:19:04.461Z,19.30
2019-02-25T21:21:34.576Z,19.97
2019-02-25T21:24:08.759Z,21.10
2019-02-25T21:26:41.036Z,20.20
2019-02-25T21:29:11.317Z,20.13
2019-02-25T21:31:47.264Z,19.37
2019-02-25T21:34:20.560Z,21.47
2019-02-25T21:36:53.938Z,22.17
2019-02-25T21:39:26.083Z,20.30
2019-02-25T21:41:55.790Z,20.77
2019-02-25T21:44:28.815Z,20.65
2019-02-25T21:47:01.105Z,21.10
2019-02-25T21:49:34.348Z,19.47
2019-02-25T21:52:06.260Z,19.90
2019-02-25T21:54:40.243Z,20.40
2019-02-25T21:57:10.231Z,22.77
2019-02-25T21:59:41.090Z,20.17
2019-02-25T22:02:11.044Z,19.60
2019-02-25T22:04:44.884Z,20.57
2019-02-25T22:09:45.926Z,20.63
2019-02-25T22:12:17.138Z,19.90
2019-02-25T22:14:49.921Z,21.73
2019-02-25T22:17:23.009Z,21.27
2019-02-25T22:19:53.944Z,21.80
2019-02-25T22:22:28.830Z,21.30
2019-02-25T22:25:01.288Z,20.60
2019-02-25T22:27:31.202Z,21.50
2019-02-25T22:30:04.746Z,22.60
2019-02-25T22:32:38.325Z,21.10
2019-02-25T22:35:14.783Z,21.50
2019-02-25T22:37:49.188Z,21.17
2019-02-25T22:40:19.580Z,22.48
2019-02-25T22:42:50.475Z,20.73
2019-02-25T22:45:21.543Z,21.70
2019-02-25T22:47:51.634Z,20.60
2019-02-25T22:50:23.740Z,21.53
2019-02-25T22:52:58.424Z,21.17
2019-02-25T22:55:30.808Z,20.37
2019-02-25T22:58:01.758Z,20.80
2019-02-25T23:00:41.759Z,21.73
2019-02-25T23:03:15.203Z,21.57
2019-02-25T23:05:50.078Z,21.87
2019-02-25T23:08:20.907Z,22.22
2019-02-25T23:10:54.031Z,20.07
2019-02-25T23:13:25.135Z,20.70
2019-02-25T23:15:56.993Z,20.30
2019-02-25T23:18:28.386Z,21.27
2019-02-25T23:21:02.426Z,20.20
2019-02-25T23:23:35.599Z,19.90
2019-02-25T23:26:05.910Z,20.53
2019-02-25T23:28:36.830Z,21.03
2019-02-25T23:31:08.248Z,19.40
2019-02-25T23:33:40.133Z,20.83
2019-02-25T23:36:14.800Z,20.53
2019-02-25T23:38:46.148Z,20.10
2019-02-25T23:41:17.231Z,21.30
2019-02-25T23:43:48.742Z,21.57
2019-02-25T23:46:23.009Z,21.40
2019-02-25T23:48:54.148Z,21.33
2019-02-25T23:51:29.024Z,22.13
2019-02-25T23:54:01.505Z,21.43
2019-02-25T23:56:34.159Z,21.93
2019-02-25T23:59:04.148Z,22.10
